コルカタ の空港の天気 - METARとTAF

ネータージー・スバース・チャンドラ・ボース国際空港 ( VECC / CCU ) - インド コルカタ
飛行場実況気象(Metar)
観測時間11/20 09:00 IST (11/20 03:30 UTC)
風向・風速北北東 2m/s
視程2800m
天気現象煙霧
なし
気温25℃
湿度78%
気圧1015hPa
METARVECC 200330Z 03004KT 2800 HZ NSC 25/21 Q1015 NOSIG
過去の天気等 Google飛行場航空写真 Wunderground天気予報

過去48時間のMETAR

飛行場予報(TAF)
発表時間: 11/20 04:30 IST (11/19 23:00 UTC)
予報対象時間: 20日5時 IST ~ 21日11時 IST
風向・風速静穏
視程1,800m
天気現象もや
少しの雲 雲底高度 610m
20日8時 IST ~ 20日10時 IST に徐々に
風向・風速北北西 3m/s
視程3,500m
天気現象煙霧
20日17時 IST ~ 20日19時 IST に徐々に
風向・風速静穏
20日21時 IST ~ 20日23時 IST に徐々に
視程2,500m
天気現象もや
21日2時 IST ~ 21日4時 IST に徐々に
視程1,400m
天気現象もや
21日7時 IST ~ 21日9時 IST に徐々に
風向・風速北北西 3m/s
視程2,500m
天気現象煙霧
TAF VECC 192300Z 2000/2106 00000KT 1800 BR FEW020
BECMG 2003/2005 34005KT 3500 HZ
BECMG 2012/2014 00000KT
BECMG 2016/2018 2500 BR
BECMG 2021/2023 1400 BR
BECMG 2102/2104 34005KT 2500 HZ